Time;durP1;ratioP1;P1;durP2;ratioP2;P2;SDS_P1;SDS_P2;PMS_P1;PMS_P2;Temp;Humidity;BMP_temperature;BMP_pressure;BME280_temperature;BME280_humidity;BME280_pressure;Samples;Min_cycle;Max_cycle;Signal;HPM_P1;HPM_P2
2022/02/02 00:01:18;;;;;;;35.42;5.15;;;8.40;99.90;;;;;;4990342;28;20045;-62
2022/02/02 00:03:49;;;;;;;29.08;5.10;;;8.40;99.90;;;;;;4991298;28;20042;-62
2022/02/02 00:06:21;;;;;;;23.42;5.05;;;8.50;99.90;;;;;;4990853;28;20042;-61
2022/02/02 00:09:11;;;;;;;32.58;5.78;;;8.50;99.90;;;;;;4990645;28;20128;-64
2022/02/02 00:12:23;;;;;;;40.53;4.43;;;8.50;99.90;;;;;;4987256;28;20030;-62
2022/02/02 00:19:42;;;;;;;32.65;5.57;;;8.60;99.90;;;;;;4991131;28;20069;-62
2022/02/02 00:22:13;;;;;;;17.40;3.40;;;8.60;99.90;;;;;;4990260;28;20033;-61
2022/02/02 00:24:59;;;;;;;42.40;5.82;;;8.50;99.90;;;;;;4990988;28;20085;-61
2022/02/02 00:27:26;;;;;;;38.95;6.22;;;8.50;99.90;;;;;;4990823;28;20121;-61
2022/02/02 00:29:57;;;;;;;22.98;5.10;;;8.50;99.90;;;;;;4990244;28;20039;-61
2022/02/02 00:32:47;;;;;;;41.65;5.22;;;8.40;99.90;;;;;;4991331;28;20393;-63
2022/02/02 00:35:16;;;;;;;30.75;4.47;;;8.40;99.90;;;;;;4990555;28;20026;-62
2022/02/02 00:37:41;;;;;;;23.65;3.92;;;8.40;99.90;;;;;;4989564;28;20038;-61
2022/02/02 00:40:07;;;;;;;31.45;5.40;;;8.40;99.90;;;;;;4990037;28;20041;-61
2022/02/02 00:42:33;;;;;;;31.77;3.85;;;8.40;99.90;;;;;;4996812;28;20054;-62
2022/02/02 00:44:58;;;;;;;52.95;8.60;;;8.40;99.90;;;;;;4989945;28;20052;-61
2022/02/02 00:47:25;;;;;;;41.03;4.75;;;8.30;99.90;;;;;;4997098;28;20030;-64
2022/02/02 00:49:53;;;;;;;32.33;4.47;;;8.30;99.90;;;;;;4989878;28;20138;-61
2022/02/02 00:52:19;;;;;;;33.70;4.93;;;8.20;99.90;;;;;;4990682;28;20042;-62
2022/02/02 00:54:47;;;;;;;25.77;4.07;;;8.20;99.90;;;;;;4990281;28;20049;-60
2022/02/02 00:57:13;;;;;;;20.45;3.58;;;8.20;99.90;;;;;;4990475;28;20113;-61
2022/02/02 00:59:39;;;;;;;34.42;4.40;;;8.10;99.90;;;;;;4994333;28;20044;-63
2022/02/02 01:02:05;;;;;;;46.92;5.15;;;8.10;99.90;;;;;;4989736;28;20686;-61
2022/02/02 01:04:31;;;;;;;24.08;4.75;;;8.00;99.90;;;;;;4990168;28;20533;-61
2022/02/02 01:07:12;;;;;;;23.48;4.32;;;8.00;99.90;;;;;;4989841;28;20027;-62
2022/02/02 01:09:45;;;;;;;39.10;5.18;;;8.00;99.90;;;;;;4990356;28;20093;-62
2022/02/02 01:28:25;;;;;;;27.70;3.78;;;7.90;99.90;;;;;;4989835;28;20069;-61
2022/02/02 01:30:52;;;;;;;25.83;4.38;;;8.00;99.90;;;;;;4989397;28;20483;-61
2022/02/02 01:33:19;;;;;;;33.10;4.57;;;7.90;99.90;;;;;;4990137;28;20481;-62
2022/02/02 01:35:45;;;;;;;30.05;6.38;;;7.90;99.90;;;;;;4990172;28;20510;-61
2022/02/02 01:38:11;;;;;;;45.15;5.47;;;7.90;99.90;;;;;;4989699;28;20579;-61
2022/02/02 01:40:42;;;;;;;26.52;3.70;;;7.90;99.90;;;;;;4996781;28;20038;-62
2022/02/02 01:43:16;;;;;;;28.08;4.82;;;8.00;99.90;;;;;;4989750;28;20034;-62
2022/02/02 01:45:50;;;;;;;33.50;5.22;;;8.00;99.90;;;;;;4989870;28;20672;-62
2022/02/02 01:56:03;;;;;;;32.85;6.60;;;7.90;99.90;;;;;;4982520;28;20533;-62
2022/02/02 02:01:14;;;;;;;44.85;5.45;;;7.80;99.90;;;;;;4987467;28;20041;-61
2022/02/02 02:03:40;;;;;;;46.75;5.25;;;7.90;99.90;;;;;;4989553;28;20030;-62
2022/02/02 02:06:06;;;;;;;35.47;6.13;;;7.90;99.90;;;;;;5034247;23;20046;-68
2022/02/02 02:08:35;;;;;;;36.97;5.22;;;7.90;99.90;;;;;;5040997;28;20057;-67
2022/02/02 02:11:03;;;;;;;37.22;5.97;;;8.00;99.90;;;;;;5037849;28;20565;-68
2022/02/02 02:16:15;;;;;;;32.08;6.38;;;8.00;99.90;;;;;;5039941;28;20062;-68
2022/02/02 02:18:41;;;;;;;30.13;5.50;;;8.00;99.90;;;;;;5042260;28;20037;-68
2022/02/02 02:21:11;;;;;;;29.63;4.80;;;8.10;99.90;;;;;;5042131;28;20041;-69
2022/02/02 02:23:37;;;;;;;32.28;6.60;;;8.10;99.90;;;;;;5044133;28;20554;-67
2022/02/02 02:26:05;;;;;;;31.42;4.03;;;8.10;99.90;;;;;;5041028;28;20132;-70
2022/02/02 02:28:56;;;;;;;31.98;4.25;;;8.20;99.90;;;;;;5043486;28;20056;-67
2022/02/02 02:56:18;;;;;;;33.90;5.07;;;8.30;99.90;;;;;;5041116;28;20059;-69
2022/02/02 02:58:59;;;;;;;23.25;4.28;;;8.40;99.90;;;;;;5042867;28;20048;-67
2022/02/02 04:02:04;;;;;;;28.10;5.28;;;8.40;99.90;;;;;;5040659;28;20191;-69
2022/02/02 04:07:21;;;;;;;27.70;4.32;;;8.40;99.90;;;;;;5042761;28;20486;-68
2022/02/02 04:09:48;;;;;;;26.17;3.88;;;8.40;99.90;;;;;;5039204;28;20043;-68
2022/02/02 04:53:07;;;;;;;30.17;5.85;;;8.30;99.90;;;;;;5043096;28;20031;-69
2022/02/02 04:58:12;;;;;;;26.42;5.35;;;8.30;99.90;;;;;;5039778;28;20030;-69
2022/02/02 05:08:53;;;;;;;35.38;6.30;;;8.30;99.90;;;;;;5040686;28;20039;-68
2022/02/02 05:16:53;;;;;;;26.33;4.10;;;8.20;99.90;;;;;;5040661;28;20067;-72
2022/02/02 05:43:27;;;;;;;34.13;6.00;;;8.10;99.90;;;;;;5046357;28;20124;-67
2022/02/02 05:48:44;;;;;;;37.00;4.93;;;8.10;99.90;;;;;;5047704;28;20048;-68
2022/02/02 05:51:23;;;;;;;33.30;4.45;;;8.10;99.90;;;;;;5048777;28;20040;-68
2022/02/02 05:53:50;;;;;;;18.40;4.05;;;8.10;99.90;;;;;;5050320;28;20144;-66
2022/02/02 05:56:16;;;;;;;25.55;2.95;;;8.10;99.90;;;;;;5047919;28;20033;-68
2022/02/02 05:58:45;;;;;;;30.02;5.95;;;8.10;99.90;;;;;;5047410;28;20694;-68
2022/02/02 06:01:12;;;;;;;29.15;4.25;;;8.00;99.90;;;;;;5043091;28;20033;-68
2022/02/02 06:03:37;;;;;;;30.20;5.43;;;8.00;99.90;;;;;;5045573;28;20135;-68
2022/02/02 06:06:03;;;;;;;21.40;4.35;;;8.00;99.90;;;;;;5051868;28;20135;-68
2022/02/02 06:08:30;;;;;;;31.02;3.78;;;8.00;99.90;;;;;;5052373;28;20037;-68
2022/02/02 06:10:57;;;;;;;39.42;5.60;;;8.00;99.90;;;;;;5051705;28;21796;-68
2022/02/02 06:13:35;;;;;;;20.75;4.10;;;8.00;99.90;;;;;;5053293;28;20111;-67
2022/02/02 06:16:02;;;;;;;27.20;5.75;;;8.00;99.90;;;;;;5052088;28;20071;-65
2022/02/02 06:18:28;;;;;;;35.10;3.95;;;7.90;99.90;;;;;;5052448;28;20452;-66
2022/02/02 06:20:58;;;;;;;27.15;4.47;;;7.90;99.90;;;;;;5051801;28;20039;-70
2022/02/02 06:23:29;;;;;;;28.35;4.13;;;7.90;99.90;;;;;;5052894;28;20068;-67
2022/02/02 06:25:58;;;;;;;20.42;4.75;;;7.80;99.90;;;;;;5051429;28;20037;-67
2022/02/02 06:28:28;;;;;;;29.92;5.47;;;7.70;99.90;;;;;;5050165;28;20056;-67
2022/02/02 06:31:05;;;;;;;20.88;3.50;;;7.60;99.90;;;;;;5051061;28;20060;-68
2022/02/02 06:33:36;;;;;;;27.45;5.72;;;7.60;99.90;;;;;;5053037;28;20068;-67
2022/02/02 06:36:06;;;;;;;35.60;3.95;;;7.50;99.90;;;;;;5051180;28;20525;-68
2022/02/02 06:38:33;;;;;;;28.35;4.53;;;7.50;99.90;;;;;;5051647;28;20037;-66
2022/02/02 06:41:00;;;;;;;31.15;4.88;;;7.50;99.90;;;;;;5049899;28;20421;-63
2022/02/02 06:43:26;;;;;;;41.88;5.95;;;7.50;99.90;;;;;;5053144;28;20147;-68
2022/02/02 06:45:54;;;;;;;26.55;4.55;;;7.50;99.90;;;;;;5051251;28;20033;-68
2022/02/02 06:48:20;;;;;;;33.47;5.40;;;7.50;99.90;;;;;;5050183;28;20095;-69
2022/02/02 06:50:55;;;;;;;35.30;5.70;;;7.50;99.90;;;;;;5051565;28;20041;-67
2022/02/02 06:53:31;;;;;;;30.35;4.47;;;7.50;99.90;;;;;;5049607;28;20040;-65
2022/02/02 06:59:27;;;;;;;;;;;7.60;99.90;;;;;;5018222;28;20041;-68
2022/02/02 07:10:23;;;;;;;32.78;6.22;;;7.60;99.90;;;;;;5050495;28;20044;-67
2022/02/02 07:29:14;;;;;;;23.30;4.15;;;7.20;99.90;;;;;;5016625;28;20041;-71
2022/02/02 07:35:11;;;;;;;32.45;4.30;;;7.20;99.90;;;;;;5049534;28;20409;-66
2022/02/02 07:37:47;;;;;;;36.45;7.15;;;7.10;99.90;;;;;;5049036;28;20041;-65
2022/02/02 07:40:13;;;;;;;36.38;5.65;;;7.10;99.90;;;;;;5048084;28;20029;-66
2022/02/02 07:42:50;;;;;;;41.65;4.43;;;7.20;99.90;;;;;;5050513;28;20037;-64
2022/02/02 07:45:19;;;;;;;31.85;4.38;;;7.20;99.90;;;;;;5046942;28;20033;-64
2022/02/02 07:47:52;;;;;;;36.47;5.28;;;7.20;99.90;;;;;;5049287;28;20040;-68
2022/02/02 07:50:19;;;;;;;24.13;4.82;;;7.20;99.90;;;;;;5048963;28;20501;-67
2022/02/02 07:52:46;;;;;;;52.40;7.03;;;7.30;99.90;;;;;;5049414;28;20051;-69
2022/02/02 07:55:13;;;;;;;42.50;4.25;;;7.30;99.90;;;;;;5048956;28;20508;-65
2022/02/02 07:57:43;;;;;;;36.33;4.78;;;7.30;99.90;;;;;;5056743;23;20120;-66
2022/02/02 08:00:19;;;;;;;48.70;7.60;;;7.30;99.90;;;;;;5019462;28;20038;-65
2022/02/02 08:03:28;;;;;;;32.38;3.97;;;7.30;99.90;;;;;;5024207;28;20072;-66
2022/02/02 08:05:42;;;;;;;26.48;3.65;;;7.30;99.90;;;;;;5027565;28;20038;-65
2022/02/02 08:10:39;;;;;;;29.25;5.05;;;7.30;99.90;;;;;;5005515;28;20486;-65
2022/02/02 08:13:17;;;;;;;35.95;4.72;;;7.30;99.90;;;;;;5006727;28;20026;-66
2022/02/02 08:15:43;;;;;;;36.42;4.93;;;7.40;99.90;;;;;;5007926;28;20118;-67
2022/02/02 08:18:09;;;;;;;25.45;4.82;;;7.50;99.90;;;;;;5008230;28;20037;-67
2022/02/02 08:20:35;;;;;;;34.13;3.80;;;7.50;99.90;;;;;;5008089;28;20026;-67
2022/02/02 08:23:01;;;;;;;22.45;3.38;;;7.60;99.90;;;;;;5007606;28;20076;-67
2022/02/02 08:25:29;;;;;;;25.02;3.40;;;7.70;99.90;;;;;;5010909;28;20021;-65
2022/02/02 08:28:01;;;;;;;22.77;4.53;;;7.70;99.90;;;;;;5008936;28;20104;-67
2022/02/02 08:30:28;;;;;;;30.13;3.72;;;7.80;99.90;;;;;;5011451;28;20036;-64
2022/02/02 08:32:57;;;;;;;32.67;4.53;;;7.80;99.90;;;;;;5007796;28;20056;-66
2022/02/02 08:35:49;;;;;;;42.20;3.75;;;7.80;99.90;;;;;;5010152;28;20151;-66
2022/02/02 08:38:44;;;;;;;24.95;5.03;;;7.80;99.90;;;;;;5009852;28;20038;-66
2022/02/02 08:41:07;;;;;;;29.10;4.75;;;7.80;99.90;;;;;;5007199;28;20063;-67
2022/02/02 08:43:40;;;;;;;32.22;5.07;;;7.80;99.90;;;;;;5012469;28;20127;-68
2022/02/02 08:46:11;;;;;;;26.27;3.45;;;7.80;99.90;;;;;;5005198;28;20022;-66
2022/02/02 08:48:40;;;;;;;35.38;4.60;;;7.90;99.90;;;;;;5006888;28;20129;-66
2022/02/02 08:51:11;;;;;;;32.25;4.47;;;7.90;99.90;;;;;;5006957;28;20099;-66
2022/02/02 08:53:57;;;;;;;23.33;3.60;;;8.00;99.90;;;;;;5007939;28;20037;-68
2022/02/02 08:59:02;;;;;;;27.05;3.50;;;8.10;99.90;;;;;;5009829;28;20072;-68
2022/02/02 09:01:31;;;;;;;29.20;4.03;;;8.10;99.90;;;;;;5011041;28;20048;-65
2022/02/02 09:06:41;;;;;;;29.27;4.43;;;8.30;99.90;;;;;;5008052;28;20453;-65
2022/02/02 09:09:11;;;;;;;22.00;3.95;;;8.40;99.90;;;;;;5006061;28;20054;-67
2022/02/02 09:25:25;;;;;;;33.10;5.13;;;8.70;99.90;;;;;;5003664;28;20038;-67
2022/02/02 09:35:44;;;;;;;17.80;3.05;;;9.00;99.90;;;;;;5015122;28;20033;-66
2022/02/02 09:38:10;;;;;;;24.90;4.10;;;9.00;99.90;;;;;;5012256;28;20512;-66
2022/02/02 09:43:06;;;;;;;20.52;3.65;;;9.20;99.90;;;;;;5009792;28;20037;-67
2022/02/02 09:45:32;;;;;;;25.38;3.17;;;9.20;99.90;;;;;;5012311;28;20481;-66
2022/02/02 09:48:07;;;;;;;21.60;3.55;;;9.30;99.90;;;;;;5009738;28;20038;-69
2022/02/02 09:50:37;;;;;;;23.58;2.90;;;9.40;99.90;;;;;;5013448;28;20050;-66
2022/02/02 09:53:06;;;;;;;28.75;3.42;;;9.50;99.90;;;;;;5009931;28;20107;-66
2022/02/02 09:56:02;;;;;;;13.98;3.05;;;9.60;99.90;;;;;;5013285;28;20057;-66
2022/02/02 10:04:04;;;;;;;22.85;3.75;;;9.70;99.90;;;;;;5013826;28;20053;-66
2022/02/02 10:06:59;;;;;;;18.80;2.78;;;9.70;99.90;;;;;;5010037;28;20500;-67
2022/02/02 10:12:03;;;;;;;19.77;4.03;;;9.70;99.90;;;;;;5013209;28;20072;-67
2022/02/02 10:14:36;;;;;;;19.90;2.47;;;9.80;99.90;;;;;;5012492;28;20033;-65
2022/02/02 10:17:08;;;;;;;19.95;3.00;;;9.90;99.90;;;;;;5011216;28;20061;-66
2022/02/02 10:19:36;;;;;;;16.15;2.88;;;10.00;99.90;;;;;;5012788;28;20030;-66
2022/02/02 10:22:21;;;;;;;18.83;2.83;;;10.10;99.90;;;;;;5011621;28;20050;-66
2022/02/02 10:24:52;;;;;;;21.55;3.40;;;10.10;99.90;;;;;;5009295;28;20069;-67
2022/02/02 10:27:25;;;;;;;;;;;10.20;99.90;;;;;;5010371;28;20041;-66
2022/02/02 10:29:51;;;;;;;17.02;2.78;;;10.20;99.90;;;;;;5009067;28;20028;-64
2022/02/02 10:32:39;;;;;;;19.58;2.55;;;10.20;99.90;;;;;;5010893;28;20102;-66
2022/02/02 10:35:07;;;;;;;19.20;2.70;;;10.20;99.90;;;;;;5007323;28;20042;-66
2022/02/02 10:37:34;;;;;;;14.50;3.65;;;10.20;99.90;;;;;;5011894;28;20030;-67
2022/02/02 10:40:00;;;;;;;35.30;4.18;;;10.10;99.90;;;;;;5010333;28;20033;-66
2022/02/02 10:42:42;;;;;;;13.75;2.58;;;10.10;99.90;;;;;;5013940;28;20084;-66
2022/02/02 10:45:26;;;;;;;18.05;3.85;;;10.00;99.90;;;;;;5007558;28;20053;-73
2022/02/02 10:48:02;;;;;;;19.23;3.33;;;9.90;99.90;;;;;;5009502;28;20034;-66
2022/02/02 10:56:04;;;;;;;17.67;3.28;;;9.90;99.90;;;;;;5009889;28;20438;-66
2022/02/02 11:09:20;;;;;;;19.73;2.40;;;10.00;99.90;;;;;;4973375;28;20042;-67
2022/02/02 11:11:53;;;;;;;20.38;3.83;;;10.10;99.90;;;;;;5003736;28;20034;-68
2022/02/02 11:14:36;;;;;;;24.60;2.75;;;10.30;99.90;;;;;;5009453;28;20037;-66
2022/02/02 11:17:25;;;;;;;11.55;2.20;;;10.30;99.90;;;;;;5009157;28;20038;-66
2022/02/02 11:19:54;;;;;;;17.27;2.42;;;10.30;99.90;;;;;;5010303;28;20128;-65
2022/02/02 11:22:31;;;;;;;19.00;3.67;;;10.20;99.90;;;;;;5009629;28;20061;-66
2022/02/02 11:25:03;;;;;;;19.05;2.13;;;10.20;99.90;;;;;;5022044;28;20057;-67
2022/02/02 11:27:45;;;;;;;16.35;3.25;;;10.20;99.90;;;;;;5010668;28;20037;-66
2022/02/02 11:30:23;;;;;;;19.75;2.85;;;10.20;99.90;;;;;;5010105;28;20049;-65
2022/02/02 11:32:54;;;;;;;24.40;2.97;;;10.20;99.90;;;;;;5008110;28;20034;-67
2022/02/02 11:35:29;;;;;;;10.85;1.85;;;10.30;99.90;;;;;;5008637;28;20960;-66
2022/02/02 11:37:58;;;;;;;20.30;3.83;;;10.30;99.90;;;;;;5008549;28;20025;-65
2022/02/02 11:40:24;;;;;;;11.43;2.15;;;10.30;99.90;;;;;;5008091;28;20030;-67
2022/02/02 11:43:01;;;;;;;13.43;2.08;;;10.30;99.90;;;;;;5009553;28;20088;-67
2022/02/02 11:46:00;;;;;;;19.42;2.33;;;10.30;99.90;;;;;;5008193;28;20026;-66
2022/02/02 11:48:45;;;;;;;14.60;1.92;;;10.40;99.90;;;;;;5007328;28;20046;-68
2022/02/02 11:51:30;;;;;;;13.13;1.58;;;10.60;99.90;;;;;;5006288;28;20041;-66
2022/02/02 11:53:56;;;;;;;14.10;2.20;;;10.70;99.90;;;;;;5008496;28;20097;-68
2022/02/02 11:56:27;;;;;;;12.00;1.90;;;10.70;99.90;;;;;;5008050;28;20375;-68
2022/02/02 11:58:53;;;;;;;13.93;2.55;;;10.80;99.90;;;;;;5009009;28;20398;-69
2022/02/02 12:01:41;;;;;;;13.75;2.53;;;10.90;99.90;;;;;;5010183;28;20040;-67
2022/02/02 12:04:38;;;;;;;13.00;2.97;;;11.00;99.90;;;;;;5004889;28;20038;-67
2022/02/02 12:07:12;;;;;;;14.90;2.20;;;10.90;99.90;;;;;;5007653;28;20018;-68
2022/02/02 12:09:55;;;;;;;14.15;2.42;;;10.90;99.90;;;;;;5008986;28;20041;-68
2022/02/02 12:21:25;;;;;;;16.40;2.33;;;10.60;99.90;;;;;;5006551;28;20393;-66
2022/02/02 12:49:02;;;;;;;26.85;2.58;;;10.30;99.90;;;;;;5006990;28;20389;-65
2022/02/02 12:57:26;;;;;;;17.65;2.20;;;10.20;99.90;;;;;;4985619;28;20045;-65
2022/02/02 13:00:06;;;;;;;20.42;2.97;;;10.20;99.90;;;;;;4999771;28;20085;-65
2022/02/02 13:02:36;;;;;;;15.02;3.03;;;10.20;99.90;;;;;;5003849;28;20390;-66
2022/02/02 13:05:02;;;;;;;23.08;2.67;;;10.10;99.90;;;;;;5007946;28;20084;-67
2022/02/02 13:07:29;;;;;;;10.00;2.97;;;10.10;99.90;;;;;;5008251;28;20034;-66
2022/02/02 13:09:55;;;;;;;6.40;1.83;;;10.00;99.90;;;;;;5010827;28;20033;-66
2022/02/02 13:12:28;;;;;;;15.25;3.08;;;10.00;99.90;;;;;;5000225;28;20402;-65
2022/02/02 13:18:13;;;;;;;11.73;2.30;;;9.90;99.90;;;;;;5000022;28;20738;-66
2022/02/02 13:21:02;;;;;;;16.38;2.83;;;9.90;99.90;;;;;;5029464;28;20045;-65
2022/02/02 13:26:40;;;;;;;12.13;2.27;;;9.90;99.90;;;;;;5001380;28;20026;-65
2022/02/02 13:42:50;;;;;;;15.90;2.67;;;9.80;99.90;;;;;;5002001;28;20030;-66
2022/02/02 14:06:58;;;;;;;16.27;2.30;;;9.80;99.90;;;;;;5005682;28;20042;-61
2022/02/02 14:31:09;;;;;;;23.40;3.03;;;9.50;99.90;;;;;;5031249;28;20040;-66
2022/02/02 14:33:36;;;;;;;13.02;2.53;;;9.50;99.90;;;;;;5030109;28;20033;-67
2022/02/02 14:36:05;;;;;;;9.75;1.65;;;9.50;99.90;;;;;;5029491;28;20053;-68
2022/02/02 14:38:38;;;;;;;16.73;2.88;;;9.50;99.90;;;;;;5028573;28;20753;-67
2022/02/02 14:46:13;;;;;;;13.90;1.92;;;9.40;99.90;;;;;;5030491;28;20105;-68
2022/02/02 14:48:47;;;;;;;19.25;2.72;;;9.40;99.90;;;;;;5028627;28;20482;-67
2022/02/02 14:54:23;;;;;;;18.88;2.38;;;9.40;99.90;;;;;;5027664;28;20053;-65
2022/02/02 15:24:25;;;;;;;19.83;2.38;;;8.90;99.90;;;;;;5032283;28;20056;-67
2022/02/02 15:32:22;;;;;;;20.05;2.30;;;8.90;99.90;;;;;;5025211;28;20030;-67
2022/02/02 15:34:52;;;;;;;22.15;3.55;;;8.90;99.90;;;;;;5025887;28;20042;-69
2022/02/02 15:40:07;;;;;;;10.93;1.90;;;8.90;99.90;;;;;;5027926;28;20040;-68
2022/02/02 15:58:27;;;;;;;13.07;2.55;;;8.70;99.90;;;;;;5026287;28;20508;-69
2022/02/02 16:03:37;;;;;;;13.15;3.17;;;8.60;99.90;;;;;;5029015;28;20045;-67
2022/02/02 16:06:14;;;;;;;11.18;1.63;;;8.60;99.90;;;;;;5028507;28;20041;-68
2022/02/02 16:08:42;;;;;;;9.40;2.65;;;8.60;99.90;;;;;;5027122;28;20029;-69
2022/02/02 16:13:42;;;;;;;8.65;1.98;;;8.60;99.90;;;;;;5025198;28;20033;-67
2022/02/02 16:32:40;;;;;;;10.18;2.10;;;8.80;99.90;;;;;;5026162;28;20540;-67
2022/02/02 16:37:48;;;;;;;6.97;2.00;;;8.80;99.90;;;;;;5025356;28;20648;-68
2022/02/02 16:40:19;;;;;;;10.07;2.75;;;8.80;99.90;;;;;;5027387;28;20378;-69
2022/02/02 16:43:12;;;;;;;13.57;2.00;;;8.80;99.90;;;;;;5030784;28;20041;-67
2022/02/02 16:45:43;;;;;;;6.30;2.30;;;8.80;99.90;;;;;;5025440;28;20044;-67
2022/02/02 16:48:10;;;;;;;11.23;2.15;;;8.80;99.90;;;;;;5024320;28;20390;-68
2022/02/02 16:50:39;;;;;;;11.57;2.13;;;8.80;99.90;;;;;;5025274;28;20461;-69
2022/02/02 16:53:12;;;;;;;9.82;1.77;;;8.80;99.90;;;;;;5025659;28;20032;-68
2022/02/02 16:55:51;;;;;;;5.63;2.28;;;8.80;99.90;;;;;;5028063;28;20754;-65
2022/02/02 17:31:20;;;;;;;7.72;1.35;;;8.70;99.90;;;;;;5024918;28;20044;-69
2022/02/02 17:34:35;;;;;;;8.50;2.25;;;8.70;99.90;;;;;;5026073;28;20535;-67
2022/02/02 17:36:48;;;;;;;10.23;1.35;;;8.70;99.90;;;;;;5017743;28;20030;-69
2022/02/02 17:39:16;;;;;;;8.98;1.92;;;8.70;99.90;;;;;;5026008;28;20021;-67
2022/02/02 17:59:32;;;;;;;13.40;2.92;;;8.90;99.90;;;;;;5029093;28;20044;-67
2022/02/02 18:19:59;;;;;;;12.82;2.55;;;8.80;99.90;;;;;;5030081;28;20112;-67
2022/02/02 18:22:30;;;;;;;10.18;2.42;;;8.80;99.90;;;;;;5031367;28;20037;-68
2022/02/02 18:25:07;;;;;;;8.80;3.10;;;8.80;99.90;;;;;;5027210;28;20295;-67
2022/02/02 18:27:45;;;;;;;8.80;2.35;;;8.80;99.90;;;;;;5030114;28;20033;-68
2022/02/02 18:30:41;;;;;;;5.75;2.53;;;8.80;99.90;;;;;;5029683;28;20407;-67
2022/02/02 18:33:25;;;;;;;11.05;2.40;;;8.80;99.90;;;;;;5027816;28;20087;-69
2022/02/02 18:36:23;;;;;;;10.40;2.60;;;8.80;99.90;;;;;;5030213;28;20064;-70
2022/02/02 18:39:50;;;;;;;8.35;3.22;;;8.90;99.90;;;;;;5026235;28;20120;-66
2022/02/02 18:49:45;;;;;;;10.00;3.63;;;8.90;99.90;;;;;;5030005;28;20049;-68
2022/02/02 19:00:41;;;;;;;6.35;3.20;;;9.00;99.90;;;;;;5029686;28;20563;-65
2022/02/02 19:14:40;;;;;;;11.70;3.75;;;9.00;99.90;;;;;;5020334;28;20441;-68
2022/02/02 19:56:52;;;;;;;17.77;7.45;;;8.80;99.90;;;;;;5021916;28;20409;-69
2022/02/02 20:02:18;;;;;;;19.30;7.43;;;8.80;99.90;;;;;;5021087;28;20068;-64
2022/02/02 20:05:04;;;;;;;20.27;7.57;;;8.80;99.90;;;;;;5029667;28;20108;-64
2022/02/02 20:10:58;;;;;;;21.23;8.68;;;8.90;99.90;;;;;;5006833;28;20568;-62
2022/02/02 20:12:52;;;;;;;21.58;8.07;;;8.90;99.90;;;;;;5002513;28;20064;-65
2022/02/02 20:15:18;;;;;;;21.30;8.63;;;8.90;99.90;;;;;;5001719;28;20041;-65
2022/02/02 20:17:45;;;;;;;25.60;10.10;;;8.90;99.90;;;;;;5008997;28;20530;-64
2022/02/02 20:20:15;;;;;;;22.52;9.35;;;8.90;99.90;;;;;;5008292;28;20030;-64
2022/02/02 20:22:41;;;;;;;20.92;8.43;;;8.90;99.90;;;;;;4993807;28;20479;-64
2022/02/02 20:25:08;;;;;;;25.45;9.95;;;8.90;99.90;;;;;;4983136;28;20114;-65
2022/02/02 20:27:36;;;;;;;23.00;9.65;;;8.90;99.90;;;;;;4998414;28;20441;-65
2022/02/02 20:30:04;;;;;;;23.65;9.52;;;8.90;99.90;;;;;;4982421;28;20408;-65
2022/02/02 20:32:29;;;;;;;24.30;9.82;;;8.90;99.90;;;;;;4984910;28;20037;-64
2022/02/02 20:34:55;;;;;;;24.42;10.43;;;8.90;99.90;;;;;;4982580;28;20399;-65
2022/02/02 20:37:21;;;;;;;22.77;9.13;;;8.90;99.90;;;;;;5009535;28;20096;-65
2022/02/02 20:40:04;;;;;;;21.80;8.55;;;8.90;99.90;;;;;;5009570;28;20120;-64
2022/02/02 21:14:39;;;;;;;24.27;8.93;;;8.90;99.90;;;;;;5007098;28;20542;-65
2022/02/02 21:17:07;;;;;;;18.92;7.78;;;8.90;99.90;;;;;;5023318;28;20486;-64
2022/02/02 21:19:50;;;;;;;22.50;9.20;;;8.90;99.90;;;;;;5009719;28;20052;-65
2022/02/02 21:22:15;;;;;;;19.55;8.20;;;8.90;99.90;;;;;;5008338;28;20033;-65
2022/02/02 21:27:21;;;;;;;24.02;8.57;;;8.90;99.90;;;;;;5012805;28;20483;-65
2022/02/02 21:29:47;;;;;;;19.17;7.72;;;8.90;99.90;;;;;;5028804;28;20099;-65
2022/02/02 21:32:12;;;;;;;17.45;6.88;;;8.90;99.90;;;;;;5011858;28;20120;-65
2022/02/02 21:34:39;;;;;;;18.85;6.63;;;8.90;99.90;;;;;;5013807;28;20509;-64
2022/02/02 21:37:06;;;;;;;21.42;7.10;;;8.90;99.90;;;;;;5013521;28;20065;-64
2022/02/02 21:39:35;;;;;;;19.27;7.30;;;8.90;99.90;;;;;;5012982;28;20092;-65
2022/02/02 21:42:00;;;;;;;16.67;6.63;;;8.90;99.90;;;;;;5027735;28;20135;-66
2022/02/02 21:44:26;;;;;;;17.45;6.72;;;8.90;99.90;;;;;;5012112;28;20095;-65
2022/02/02 21:46:53;;;;;;;17.40;6.72;;;8.90;99.90;;;;;;5013218;28;20038;-65
2022/02/02 21:49:21;;;;;;;16.52;6.53;;;8.90;99.90;;;;;;5027981;28;20037;-65
2022/02/02 21:51:57;;;;;;;18.58;6.63;;;8.90;99.90;;;;;;5012608;28;20041;-65
2022/02/02 21:54:23;;;;;;;23.27;6.32;;;8.90;99.90;;;;;;5011683;28;20034;-65
2022/02/02 21:56:49;;;;;;;15.52;5.90;;;8.90;99.90;;;;;;5012071;28;20045;-64
2022/02/02 21:59:14;;;;;;;20.30;6.68;;;8.80;99.90;;;;;;5012784;28;20045;-65
2022/02/02 22:01:40;;;;;;;16.90;6.13;;;8.80;99.90;;;;;;5012911;28;20037;-65
2022/02/02 22:04:05;;;;;;;18.08;6.85;;;8.80;99.90;;;;;;5012685;28;20055;-65
2022/02/02 22:06:31;;;;;;;17.95;5.88;;;8.80;99.90;;;;;;5012937;28;20390;-66
2022/02/02 22:08:57;;;;;;;26.50;7.40;;;8.80;99.90;;;;;;5012517;28;20045;-65
2022/02/02 22:11:23;;;;;;;15.43;6.63;;;8.80;99.90;;;;;;5012546;28;20033;-65
2022/02/02 22:13:58;;;;;;;16.60;6.63;;;8.80;99.90;;;;;;5012977;28;20113;-65
2022/02/02 22:16:24;;;;;;;20.05;6.63;;;8.80;99.90;;;;;;5012749;28;20120;-65
2022/02/02 22:18:51;;;;;;;18.38;6.35;;;8.80;99.90;;;;;;5012741;28;20402;-65
2022/02/02 22:21:17;;;;;;;13.38;5.25;;;8.80;99.90;;;;;;5007852;28;20061;-64
2022/02/02 22:23:43;;;;;;;14.55;6.40;;;8.70;99.90;;;;;;5027795;28;20030;-65
2022/02/02 22:26:10;;;;;;;18.05;5.75;;;8.70;99.90;;;;;;5012447;28;20042;-64
2022/02/02 22:28:35;;;;;;;20.67;6.43;;;8.70;99.90;;;;;;5012106;28;20088;-65
2022/02/02 22:31:01;;;;;;;15.20;6.15;;;8.70;99.90;;;;;;5011669;28;20033;-64
2022/02/02 22:33:27;;;;;;;15.48;6.38;;;8.70;99.90;;;;;;5012493;28;20461;-64
2022/02/02 22:35:53;;;;;;;14.75;6.35;;;8.70;99.90;;;;;;5010428;28;20107;-65
2022/02/02 22:38:19;;;;;;;13.55;6.13;;;8.70;99.90;;;;;;5012421;28;20030;-65
2022/02/02 22:40:45;;;;;;;18.77;7.45;;;8.70;99.90;;;;;;5012224;28;20034;-64
2022/02/02 22:43:12;;;;;;;18.52;6.97;;;8.70;99.90;;;;;;5012079;28;20034;-65
2022/02/02 22:45:42;;;;;;;22.95;7.60;;;8.70;99.90;;;;;;5011775;28;20053;-64
2022/02/02 22:48:09;;;;;;;16.58;6.55;;;8.70;99.90;;;;;;5011966;28;20034;-65
2022/02/02 22:50:35;;;;;;;13.32;6.75;;;8.70;99.90;;;;;;5027125;28;20150;-65
2022/02/02 22:53:00;;;;;;;15.00;6.82;;;8.70;99.90;;;;;;5009994;28;20041;-65
2022/02/02 22:55:27;;;;;;;18.63;6.47;;;8.80;99.90;;;;;;5012336;28;20454;-64
2022/02/02 22:57:53;;;;;;;18.67;6.85;;;8.70;99.90;;;;;;5011669;28;20042;-65
2022/02/02 23:00:23;;;;;;;20.77;6.78;;;8.70;99.90;;;;;;5011095;28;20041;-64
2022/02/02 23:02:57;;;;;;;19.48;7.55;;;8.70;99.90;;;;;;5020387;28;20091;-65
2022/02/02 23:05:32;;;;;;;18.83;6.97;;;8.70;99.90;;;;;;5005791;28;20045;-64
2022/02/02 23:07:59;;;;;;;16.75;6.88;;;8.70;99.90;;;;;;5010265;28;20099;-64
2022/02/02 23:10:25;;;;;;;20.23;7.30;;;8.70;99.90;;;;;;5010147;28;20390;-65
2022/02/02 23:12:50;;;;;;;17.52;6.85;;;8.70;99.90;;;;;;5011579;28;20034;-64
2022/02/02 23:15:24;;;;;;;18.52;7.43;;;8.70;99.90;;;;;;5011842;28;20487;-64
2022/02/02 23:17:50;;;;;;;12.23;6.07;;;8.70;99.90;;;;;;5011705;28;20103;-65
2022/02/02 23:20:16;;;;;;;19.83;7.70;;;8.70;99.90;;;;;;5011456;28;20500;-64
2022/02/02 23:22:45;;;;;;;16.67;6.50;;;8.70;99.90;;;;;;5012019;28;20037;-65
2022/02/02 23:25:15;;;;;;;22.77;7.50;;;8.60;99.90;;;;;;5011672;28;20113;-65
2022/02/02 23:27:44;;;;;;;24.33;7.47;;;8.70;99.90;;;;;;5010098;28;20041;-64
2022/02/02 23:30:15;;;;;;;15.53;6.50;;;8.70;99.90;;;;;;5011152;28;20121;-65
2022/02/02 23:32:41;;;;;;;18.10;7.35;;;8.60;99.90;;;;;;5012135;28;20289;-65
2022/02/02 23:35:09;;;;;;;17.45;6.75;;;8.60;99.90;;;;;;5009893;28;20088;-65
2022/02/02 23:37:38;;;;;;;15.63;6.65;;;8.70;99.90;;;;;;5011260;28;20034;-64
2022/02/02 23:40:05;;;;;;;15.48;7.07;;;8.70;99.90;;;;;;5010874;28;20034;-63
2022/02/02 23:42:36;;;;;;;18.50;7.05;;;8.70;99.90;;;;;;5011340;28;20056;-64
2022/02/02 23:45:03;;;;;;;17.65;7.63;;;8.70;99.90;;;;;;5026254;28;20038;-64
2022/02/02 23:47:31;;;;;;;20.08;7.30;;;8.70;99.90;;;;;;5011198;28;20066;-65
2022/02/02 23:50:01;;;;;;;17.75;7.30;;;8.70;99.90;;;;;;5010380;28;20045;-66
2022/02/02 23:52:44;;;;;;;15.85;6.78;;;8.70;99.90;;;;;;5026387;28;20045;-64
2022/02/02 23:55:15;;;;;;;21.92;7.10;;;8.70;99.90;;;;;;5011020;28;20030;-65
2022/02/02 23:57:58;;;;;;;;;;;8.70;99.90;;;;;;5011773;28;20038;-64
